Weather observations for the past three days for
Anson County Airport
Imperial (Metric)
Date Time (edt) Wind (mph) Vis. (mi.) Weather Sky Cond. Temperature (ºF) Relative Humidity Wind Chill (°F) Heat Index (°F) Pressure Precipitation (in)
Air Dwpt 6 hour altimeter (in) sea level (mb) 1 hr 3 hr 6 hr
Max. Min.
10 18:35 Calm 10.00 Fair CLR 83.3 47.8 29% 81 29.97 0.0
10 18:15 Calm 10.00 Fair CLR 83.3 47.8 29% 81 29.97 0.0
10 17:55 Calm 10.00 Fair CLR 83.3 49.1 30% 81 29.96 0.0
10 17:35 SW 5 10.00 Fair CLR 84 47.7 28% 82 29.96 0.0
10 17:15 NW 9 10.00 Fair CLR 84.4 49.1 29% 82 29.95 0.0
10 16:55 Calm 10.00 Fair CLR 84 48.6 29% 82 29.96 0.0
10 16:35 Calm 10.00 Fair CLR 83.8 48.4 29% 82 29.96 0.0
10 16:15 NW 6 10.00 Fair CLR 84 48 29% 82 29.96 0.0
10 15:55 Calm 10.00 Fair CLR 84 50.7 32% 82 29.97 0.0
10 15:35 NW 3 10.00 Fair CLR 83.5 48.6 30% 82 29.97 0.0
10 15:15 Calm 10.00 Fair CLR 83.5 49.1 30% 82 29.98 0.0
10 14:55 NW 5 10.00 Fair CLR 83.3 52.2 34% 82 29.98 0.0
10 14:35 Calm 10.00 Fair CLR 81.9 49.1 32% 81 29.98 0.0
10 14:15 W 3 10.00 Partly Cloudy SCT065 80.8 51.6 36% 80 29.99 0.0
10 13:55 Calm 10.00 Partly Cloudy SCT065 81 51.6 81.5 61.3 36% 80 30 0.0
10 13:35 Calm 10.00 Fair CLR 80.8 50.5 35% 80 30 0.0
10 13:15 N 6 10.00 Fair CLR 80.8 50.2 34% 80 30 0.0
10 12:55 N 3 10.00 Fair CLR 80.2 49.8 35% 80 30 0.0
10 12:35 Calm 10.00 Fair CLR 79.5 51.4 38% 79 30.01 0.0
10 12:15 Calm 10.00 Fair CLR 78.6 52.7 41% 79 30.01 0.0
10 11:55 NW 5 10.00 Fair CLR 77.7 53.6 43% 79 30.01 0.0
10 11:35 N 3 10.00 Fair CLR 78.1 56.7 48% 79 30.01 0.0
10 11:15 NW 6 10.00 Fair CLR 76.6 54.9 47% 78 30.01 0.0
10 10:55 NW 5 10.00 Fair CLR 75.7 58.5 55% 78 30.01 0.0
10 10:35 N 5 10.00 Fair CLR 75.7 59.7 58% 78 30.01 0.0
10 10:15 N 5 10.00 Fair CLR 73.9 60.3 62% 30.01 0.0
10 09:55 Calm 10.00 Fair CLR 71.8 63 74% 30.01 0.0
10 09:35 Calm 10.00 Fair CLR 70.2 63.5 80% 30.01 0.0
10 09:15 N 6 10.00 Fair CLR 68.7 63.3 83% 30.01 0.0
10 08:55 Calm 10.00 Fair CLR 67.3 62.8 86% 30 0.0
10 08:35 Calm 10.00 Fair CLR 65.8 62.8 90% 30 0.0
10 08:15 Calm 7.00 Fair CLR 63.5 62.4 96% 29.99 0.0
10 07:55 Calm 7.00 Fair CLR 61.3 60.3 62.1 59.4 96% 29.98 0.0
10 07:35 Calm 7.00 Fair CLR 60.4 59.4 96% 29.98 0.0
10 07:15 Calm 7.00 Fair CLR 60.4 59.4 96% 29.98 0.0
10 06:55 Calm 5.00 Fair CLR 60.1 59 96% 29.96 0.0
10 06:35 Calm 7.00 Fair CLR 59.5 58.3 96% 29.95 0.0
10 06:15 Calm 7.00 Fair CLR 61 59.9 96% 29.95 0.0
10 05:55 Calm 7.00 Fair CLR 61 59.9 96% 29.94 0.0
10 05:35 Calm 7.00 Fair CLR 61 59.9 96% 29.93 0.0
10 05:15 Calm 7.00 Fair CLR 61.2 60.1 96% 29.92 0.0
10 04:55 Calm 10.00 Fair CLR 61.2 60.1 96% 29.92 0.0
10 04:35 Calm 10.00 Fair CLR 61.5 60.4 96% 29.91 0.0
10 04:15 Calm 7.00 Fair CLR 60.6 59.5 96% 29.91 0.0
10 03:55 Calm 5.00 Fair CLR 61 59.9 96% 29.9 0.0
10 03:35 Calm 10.00 Fair CLR 61 59.9 96% 29.9 0.0
10 03:15 Calm 10.00 Fair CLR 62.1 61 96% 29.9 0.0
10 02:55 Calm 10.00 Fair CLR 61.3 60.3 96% 29.9 0.0
10 02:35 Calm 7.00 Fair CLR 60.6 59.4 96% 29.9 0.0
10 02:15 Calm 7.00 Fair CLR 61 59.9 96% 29.9 0.0
10 01:55 Calm 7.00 Fair CLR 60.8 59.9 70.7 60.1 97% 29.91 0.0
10 01:35 Calm 7.00 Fair CLR 60.1 59 96% 29.91 0.0
10 01:15 Calm 7.00 Fair CLR 60.8 59.9 97% 29.91 0.0
10 00:55 Calm 7.00 Fair CLR 61.2 60.1 96% 29.91 0.0
10 00:35 Calm 10.00 Fair CLR 61.9 60.8 96% 29.91 0.0
10 00:15 Calm 10.00 Fair CLR 62.1 61 96% 29.91 0.0
09 23:55 Calm 10.00 Fair CLR 62.2 61.2 96% 29.91 0.0
09 23:35 Calm 10.00 Fair CLR 61.3 60.3 96% 29.91 0.0
09 23:15 Calm 10.00 Fair CLR 62.1 60.8 96% 29.91 0.0
09 22:55 Calm 10.00 Fair CLR 63 61.3 94% 29.91 0.0
09 22:35 Calm 10.00 Fair CLR 64 62.2 94% 29.91 0.0
09 22:15 Calm 10.00 Fair CLR 64.4 62.2 93% 29.91 0.0
09 21:55 Calm 10.00 Fair CLR 63.5 61.7 94% 29.91 0.0
09 21:35 Calm 10.00 Fair CLR 63.7 61.7 93% 29.9 0.0
09 21:15 Calm 10.00 Fair CLR 64.8 61.9 90% 29.88 0.0
09 20:55 Calm 10.00 Fair CLR 65.7 62.2 89% 29.88 0.0
09 20:35 Calm 10.00 Fair CLR 66.2 62.1 87% 29.87 0.0
09 20:15 Calm 10.00 Fair CLR 68.7 61.9 79% 29.86 0.0
09 19:55 Calm 10.00 Fair CLR 70.7 60.8 76.1 70.5 71% 29.85 0.0
09 19:35 Calm 10.00 Fair CLR 71.6 60.8 69% 29.85 0.0
09 19:15 SW 3 10.00 Fair CLR 72.5 60.3 66% 29.85 0.0
09 18:55 S 3 10.00 Fair CLR 73 60.4 65% 29.85 0.0
09 18:35 S 6 10.00 Fair CLR 72.9 59.9 64% 29.84 0.0
09 18:15 SW 5 10.00 Fair CLR 73.4 59.7 62% 29.84 0.0
09 17:55 SW 5 10.00 Partly Cloudy SCT035 73.8 59.4 61% 29.84 0.0
09 17:35 SW 7 10.00 Mostly Cloudy BKN035 BKN042 74.1 59.5 61% 29.84 0.0
09 17:15 SW 7 10.00 Partly Cloudy SCT035 SCT045 75.2 60.6 61% 77 29.84 0.0
09 16:55 S 8 10.00 Partly Cloudy SCT035 SCT043 74.3 60.1 61% 29.84 0.0
09 16:35 SW 8 10.00 Partly Cloudy SCT035 75.6 60.3 59% 78 29.84 0.0
09 16:15 SW 6 10.00 Partly Cloudy SCT035 SCT041 74.3 60.4 62% 29.84 0.0
09 15:55 SW 5 10.00 Partly Cloudy SCT037 SCT043 74.5 59.9 61% 29.84 0.0
09 15:35 SW 5 10.00 Partly Cloudy SCT035 SCT040 73.9 61.2 64% 29.85 0.0
09 15:15 SW 7 10.00 Mostly Cloudy BKN035 BKN042 73 60.4 65% 29.86 0.0
09 14:55 S 8 10.00 Mostly Cloudy BKN035 73.6 60.3 63% 29.86 0.0
09 14:35 SW 7 10.00 Partly Cloudy SCT037 SCT043 73.4 59.5 62% 29.86 0.0
09 14:15 SW 6 10.00 Fair CLR 73 59 62% 29.87 0.0
09 13:55 SW 5 10.00 Partly Cloudy SCT030 SCT036 SCT043 72.5 59.9 72.5 57.4 65% 29.86 0.0
09 13:35 S 7 10.00 Partly Cloudy SCT030 SCT039 SCT048 72.1 60.3 66% 29.87 0.0
09 13:15 S 5 10.00 Mostly Cloudy SCT027 BKN039 71.6 60.1 67% 29.88 0.0
09 12:55 SW 9 10.00 Partly Cloudy SCT027 71.6 60.6 68% 29.89 0.0
09 12:35 SW 6 10.00 Partly Cloudy SCT026 SCT031 71.4 62.2 73% 29.9 0.0
09 12:15 SW 7 10.00 Fair CLR 69.4 61.2 75% 29.9 0.0
09 11:55 S 7 10.00 Partly Cloudy SCT060 SCT070 68.7 61.7 78% 29.9 0.0
09 11:35 S 7 10.00 Mostly Cloudy SCT018 SCT027 BKN060 69.1 61.9 78% 29.91 0.0
09 11:15 S 7 10.00 Mostly Cloudy SCT016 BKN037 BKN060 68 61.7 80% 29.91 0.0
09 10:55 S 7 10.00 Partly Cloudy SCT014 SCT028 SCT036 68 61.7 80% 29.91 0.0
09 10:35 SE 5 10.00 Mostly Cloudy SCT033 BKN070 66.7 61.5 83% 29.91 0.0
09 10:15 S 5 10.00 Overcast OVC070 65.5 60.8 85% 29.92 0.0
09 09:55 S 5 10.00 Overcast SCT017 OVC070 65.1 60.6 85% 29.92 0.0
09 09:35 SE 5 10.00 Mostly Cloudy SCT017 BKN070 BKN090 64 59.7 86% 29.92 0.0
09 09:15 SE 5 10.00 Partly Cloudy SCT100 SCT120 63.1 59.7 89% 29.93 0.0
09 08:55 Calm 10.00 Partly Cloudy SCT080 SCT095 60.6 59.5 96% 29.94 0.0
09 08:35 Calm 10.00 Overcast SCT055 BKN080 OVC110 58.1 57.2 97% 29.95 0.0
09 08:15 Calm 10.00 Overcast SCT048 BKN055 OVC080 58.1 56.5 94% 29.96 0.0
09 07:55 Calm 10.00 Mostly Cloudy SCT050 BKN080 BKN090 57.2 55.9 57.4 53.1 96% 29.95 0.0 0.01
09 07:35 Calm 10.00 Mostly Cloudy SCT048 SCT055 BKN080 56.5 55 95% 29.95 0.0
09 07:15 Calm 10.00 Mostly Cloudy SCT049 BKN080 55.6 54.5 96% 29.94 0.0
09 06:55 Calm 10.00 Overcast OVC049 54.7 53.6 96% 29.93 0.0
09 06:35 Calm 10.00 Overcast OVC047 54.3 53.1 96% 29.92 0.0
09 06:15 Calm 10.00 Partly Cloudy SCT047 53.8 52.3 95% 29.91 0.0
09 05:55 Calm 10.00 Fair CLR 53.8 52.7 96% 29.9 0.0
09 05:35 Calm 10.00 Fair CLR 54.3 52.7 94% 29.9 0.0
09 05:15 Calm 10.00 Fair CLR 53.4 52 95% 29.91 0.0
09 04:55 Calm 10.00 Fair CLR 54.5 52.3 92% 29.9 0.0 0.01
09 04:35 Calm 10.00 Fair CLR 55.8 53.6 93% 29.91 0.0
09 04:15 Calm 10.00 Fair CLR 56.3 53.6 91% 29.91 0.0
09 03:55 Calm 10.00 Fair CLR 56.1 53.2 90% 29.93 0.0 0.01
09 03:35 Calm 10.00 Fair CLR 57 53.4 88% 29.93 0.0 0.01
09 03:15 Calm 10.00 Fair CLR 56.8 52.9 87% 29.95 0.0 0.01
09 02:55 Calm 10.00 Fair CLR 56.5 52.2 86% 29.95 0.0
09 02:35 Calm 10.00 Fair CLR 56.7 51.6 83% 29.95 0.0
09 02:15 Calm 10.00 Fair CLR 57.2 51.3 81% 29.97 0.0
09 01:55 Calm 10.00 Fair CLR 57.4 51.1 64.6 57.4 80% 29.97 0.0 0.03
09 01:35 Calm 10.00 Fair CLR 58.1 50.2 75% 29.97 0.0
09 01:15 SE 5 10.00 Fair CLR 58.6 49.6 72% 29.98 0.0
09 00:55 SE 6 10.00 Fair CLR 59.5 48.7 68% 29.99 0.0
09 00:35 S 7 10.00 Fair CLR 59.5 47.3 64% 29.98 0.0
09 00:15 Calm 10.00 Fair CLR 59.5 46.9 63% 29.98 0.0
08 23:55 Calm 10.00 Fair CLR 59.7 47.5 64% 29.98 0.0 0.01
08 23:35 S 5 10.00 Fair CLR 59.9 47.3 63% 29.99 0.0 0.01
08 23:15 SE 3 10.00 Fair CLR 60.4 46.9 61% 29.99 0.0 0.01
08 22:55 SE 3 10.00 Fair CLR 60.6 46.9 61% 30 0.0 0.02
08 22:35 S 5 10.00 Fair CLR 61 47.1 61% 30 0.0
08 22:15 SE 5 10.00 Fair CLR 61 47.1 61% 30 0.0
08 21:55 SE 5 10.00 Fair CLR 61.7 46.4 57% 29.99 0.0 0.01
08 21:35 S 5 10.00 Fair CLR 61.7 46.6 58% 29.99 0.0
08 21:15 SE 5 10.00 Fair CLR 61.9 46.9 58% 29.98 0.0
08 20:55 S 5 10.00 Fair CLR 62.6 46.8 56% 29.98 0.0 0.01
08 20:35 Calm 10.00 Fair CLR 62.2 51.3 67% 29.97 0.0
08 20:15 Calm 10.00 Fair CLR 64 49.3 59% 29.97 0.0
08 19:55 Calm 10.00 Fair CLR 64.9 51.3 72.9 64.9 61% 29.96 0.0 0.02 0.14
08 19:35 Calm 10.00 Fair CLR 66.4 49.1 54% 29.96 0.0 0.01
08 19:15 Calm 10.00 Fair CLR 68.7 41.7 38% 29.96 0.0 0.01
08 18:55 Calm 10.00 Fair CLR 68.9 43 39% 29.97 0.0 0.02
08 18:35 Calm 10.00 Fair CLR 69.8 39.4 33% 29.97 0.0 0.02
08 18:15 Calm 10.00 Fair CLR 70.3 39.7 33% 29.97 0.0 0.01
08 17:55 Calm 10.00 Fair CLR 71.1 38.1 30% 29.96 0.0 0.02
08 17:35 Calm 10.00 Fair CLR 71.4 37.8 29% 29.96 0.0 0.02
08 17:15 SE 3 10.00 Fair CLR 71.2 36.7 28% 29.96 0.0 0.01
08 16:55 Calm 10.00 Fair CLR 72.3 40.5 32% 29.96 0.0 0.02 0.08
08 16:35 S 3 10.00 Fair CLR 72.3 38.1 29% 29.97 0.0 0.01
08 16:15 NE 6 10.00 Fair CLR 72.1 35.2 26% 29.98 0.0
08 15:55 S 7 10.00 Fair CLR 72.7 38.1 29% 29.98 0.0 0.03
08 15:35 SE 6 10.00 Fair CLR 71.8 36.7 28% 30 0.0 0.02
08 15:15 Calm 10.00 Fair CLR 71.2 36 28% 30 0.0 0.01
08 14:55 SE 6 10.00 Fair CLR 70.7 37.2 29% 30.01 0.0 0.03
08 14:35 Calm 10.00 Fair CLR 70.2 37 30% 30.01 0.0 0.02
08 14:15 S 5 10.00 Fair CLR 70 37.2 30% 30.02 0.0 0.01
08 13:55 Calm 10.00 Fair CLR 69.8 35.6 70 51.8 29% 30.03 0.0 0.03 0.13
08 13:35 N 5 10.00 Fair CLR 68.7 36.1 30% 30.04 0.0 0.02
08 13:15 N 5 10.00 Fair CLR 68.7 34 28% 30.05 0.0 0.01
08 12:55 NE 3 10.00 Fair CLR 67.3 34.5 30% 30.05 0.0 0.02
08 12:35 NE 5 10.00 Fair CLR 66.7 35.6 32% 30.06 0.0 0.02
08 12:15 NE 3 10.00 Fair CLR 66.4 36.9 34% 30.07 0.0 0.01
08 11:55 NE 6 10.00 Fair CLR 66.2 37.8 35% 30.08 0.0 0.02
08 11:35 NE 7 10.00 Fair CLR 66 37.6 35% 30.08 0.0 0.01
08 11:15 NE 8 10.00 Fair CLR 64.4 39 39% 30.08 0.0 0.01
08 10:55 NE 7 10.00 Fair CLR 64 40.8 43% 30.08 0.0 0.02 0.06
08 10:35 NE 6 10.00 Fair CLR 63.3 43.9 49% 30.08 0.0 0.01
08 10:15 NE 5 10.00 Fair CLR 61.9 45.9 56% 30.08 0.0
08 09:55 NE 7 10.00 Fair CLR 60.3 47.8 64% 30.08 0.0 0.02
08 09:35 Calm 10.00 Fair CLR 57.9 51.6 80% 30.08 0.0 0.01
08 09:15 NE 7 10.00 Fair CLR 56.5 52.7 87% 30.08 0.0 0.01
08 08:55 N 5 10.00 Fair CLR 55.2 54.1 96% 30.07 0.0 0.02
08 08:35 Calm 10.00 Fair CLR 54.3 53.1 96% 30.06 0.0 0.01
08 08:15 Calm 10.00 Fair CLR 53.2 52.2 96% 30.06 0.0 0.01
08 07:55 Calm 4.00 Partly Cloudy SCT001 51.8 50.9 55.8 48.6 97% 30.05 0.0 0.01 0.09
08 07:35 Calm 0.25 Overcast OVC001 50.9 49.8 96% 30.04 0.0 0.01
08 07:15 Calm 0.25 Overcast OVC001 49.1 48.2 97% 30.03 0.0
08 06:55 Calm 0.25 Sky Obscured VV002 48.7 47.7 96% 30.02 0.0 0.02
08 06:35 Calm 0.50 Sky Obscured VV005 49.1 48.2 97% 30 0.0 0.01
08 06:15 Calm 0.25 Sky Obscured VV002 49.5 48.6 97% 30 0.0 0.01
08 05:55 Calm 0.25 Sky Obscured VV002 50.5 49.5 96% 29.99 0.0 0.01
08 05:35 Calm 0.25 Overcast OVC001 51.1 50 96% 29.99 0.0 0.01
08 05:16 Calm 0.25 Overcast OVC001 50.7 49.6 96% 29.99 0.0
08 04:55 Calm 0.25 Overcast OVC001 50.9 50 97% 29.98 0.0 0.02 0.05
08 04:35 Calm 0.50 Sky Obscured VV005 51.3 50.2 96% 29.98 0.0 0.01
08 04:15 Calm 0.15 Sky Obscured VV000 51.8 50.5 96% 29.97 0.0 0.01
08 03:55 Calm 0.25 Overcast BKN001 OVC065 52 50.9 96% 29.97 0.0 0.01
08 03:35 Calm 0.75 Mostly Cloudy SCT045 BKN065 52.5 51.4 96% 29.96 0.0 0.01
08 03:15 Calm 1.00 Partly Cloudy SCT065 53.8 52.7 96% 29.96 0.0
08 02:55 Calm 0.25 Mostly Cloudy BKN065 53.6 52.5 96% 29.95 0.0 0.02
08 02:35 Calm 2.50 Mostly Cloudy BKN065 55.2 54.1 96% 29.96 0.0 0.01
08 02:15 Calm 7.00 Mostly Cloudy BKN065 55.4 54.1 96% 29.96 0.0
08 01:55 Calm 1.25 Partly Cloudy SCT001 SCT065 55.6 54.5 59 55.4 96% 29.96 0.0 0.02 0.15
08 01:35 Calm 4.00 Partly Cloudy SCT060 55.8 54.7 96% 29.96 0.0 0.01
08 01:15 Calm 5.00 Partly Cloudy SCT060 SCT080 56.5 55.4 96% 29.95 0.0 0.01
08 00:55 Calm 7.00 Mostly Cloudy BKN060 BKN080 57 55.8 96% 29.95 0.0 0.02
08 00:35 Calm 10.00 Mostly Cloudy BKN060 BKN080 56.7 55.6 96% 29.95 0.0 0.01
08 00:15 Calm 10.00 Mostly Cloudy BKN060 BKN080 57.4 56.3 96% 29.94 0.0 0.01
07 23:55 Calm 10.00 Mostly Cloudy BKN060 BKN080 57.2 55.9 96% 29.94 0.0 0.02
07 23:35 Calm 10.00 Mostly Cloudy BKN060 BKN080 57.6 56.5 96% 29.95 0.0 0.01
07 23:15 Calm 10.00 Mostly Cloudy BKN060 BKN080 57.7 56.7 96% 29.94 0.0 0.01
07 22:55 Calm 10.00 Overcast OVC065 57.7 56.7 96% 29.93 0.0 0.03 0.09
07 22:35 Calm 10.00 Mostly Cloudy BKN065 57.4 56.3 96% 29.93 0.0 0.02
07 22:15 Calm 10.00 Mostly Cloudy BKN065 BKN075 57.9 56.7 96% 29.91 0.0 0.01
07 21:55 Calm 10.00 Mostly Cloudy SCT065 BKN075 BKN110 58.1 57.2 97% 29.91 0.0 0.03
07 21:35 Calm 10.00 Mostly Cloudy SCT039 SCT065 BKN085 57.7 56.7 96% 29.9 0.0 0.02
07 21:15 N 3 10.00 Overcast SCT039 BKN048 OVC085 57.9 56.8 96% 29.89 0.0 0.01
07 20:55 N 8 10.00 Overcast SCT036 BKN050 OVC085 58.1 57.2 97% 29.87 0.0 0.03
07 20:35 N 7 4.00 Overcast SCT010 BKN017 OVC050 58.1 57.2 97% 29.87 0.0 0.02
07 20:15 N 8 5.00 Overcast SCT004 BKN010 OVC013 58.8 57.7 96% 29.85 0.0 0.01
07 19:55 Calm 1.00 Overcast BKN006 OVC010 59 57.9 79 59 96% 29.83 0.0 0.01 0.14
07 19:35 N 9 G 16 7.00 Overcast SCT008 BKN011 OVC028 60.4 58.8 94% 29.8 0.0 0.01
07 19:15 NE 9 10.00 Overcast SCT011 BKN022 OVC045 62.6 58.1 85% 29.8 0.0 0.01
07 18:55 N 15 G 18 10.00 Overcast SCT011 BKN036 OVC046 63.3 59 86% 29.79 0.0 0.01
Date Time (edt) Wind (mph) Vis. (mi.) Weather Sky Cond. Air Dwpt Max. Min. Relative Humidity Wind Chill (°F) Heat Index (°F) altimeter (in) sea level (mb) 1 hr 3 hr 6 hr
6 hour
Temperature (ºF) Pressure Precipitation (in)